• Join FlightAware (Why Join?)
  • Login
  • US Flag 
07:24PM EDT


 

Airport Tracker/Info


-or-


 

Live Flight TrackerFlight Track Log ✈ SWA543 ✈ 22-Jul-2013 ✈ KBWI - KATL

Flight Track Log - Related Links

Times and Time Zones

All times are in EDT time to prevent confusion due to time zone crossing. See the SWA543 flight status page for this flight to view local times or setup timezone preferences in your user account.

Time Position Orientation Groundspeed Altitude Reporting Facility
EDT Latitude Longitude Course Direction KTS MPH feet Rate Location/Type
06:29AM 39.1833 -76.7500 270° West 213 245 2,800  Level Potomac TRACON
06:30AM 39.1833 -76.8167 270° West 217 250 4,700 3,120 Climbing Potomac TRACON
06:31AM 39.2000 -76.9000 284° West 269 310 8,500 3,360 Climbing Potomac TRACON
06:32AM 39.2167 -77.0167 280° West 302 348 11,800 3,240 Climbing Potomac TRACON
06:33AM 39.1500 -77.0833 218° Southwest 339 390 15,000 3,480 Climbing Potomac TRACON
06:34AM 39.0833 -77.1500 218° Southwest 355 409 18,100 2,760 Climbing Potomac TRACON
06:35AM 38.9556 -77.2839 219° Southwest 386 444 22,000 1,980 Climbing Washington Center
06:36AM 38.8689 -77.3700 218° Southwest 396 456 23,200 1,560 Climbing Washington Center
06:37AM 38.7800 -77.4558 217° Southwest 401 461 25,100 1,860 Climbing Washington Center
06:38AM 38.6892 -77.5464 218° Southwest 401 461 27,000 900 Climbing Washington Center
06:39AM 38.5958 -77.6397 218° Southwest 406 467 27,000 780 Level Washington Center
06:40AM 38.5067 -77.7328 219° Southwest 418 481 28,600 1,800 Climbing Washington Center
06:41AM 38.4375 -77.8581 235° Southwest 418 481 30,600 2,040 Climbing Washington Center
06:42AM 38.3706 -77.9858 236° Southwest 435 501 32,800 1,980 Climbing Washington Center
06:43AM 38.3053 -78.1133 237° Southwest 435 501 34,700 1,560 Climbing Washington Center
06:44AM 38.2378 -78.2406 236° Southwest 435 501 36,000 600 Climbing Washington Center
06:45AM 38.1725 -78.3625 236° Southwest 435 501 36,000  Level Washington Center
06:46AM 38.1111 -78.4922 239° Southwest 435 501 36,000 420 Level Washington Center
06:47AM 38.0667 -78.6064 244° Southwest 417 480 36,900 1,380 Climbing Washington Center
06:48AM 37.9969 -78.7222 233° Southwest 417 480 38,800 1,560 Climbing Washington Center
06:49AM 37.9206 -78.8481 232° Southwest 417 480 40,000 600 Climbing Washington Center
06:50AM 37.8506 -78.9633 232° Southwest 417 480 40,000  Level Washington Center
06:51AM 37.7806 -79.0783 232° Southwest 422 486 40,000  Level Washington Center
06:52AM 37.7192 -79.1833 234° Southwest 422 486 40,000  Level Washington Center
06:53AM 37.6400 -79.3106 232° Southwest 422 486 40,000  Level Washington Center
06:54AM 37.5783 -79.4150 233° Southwest 422 486 40,000  Level Washington Center
06:55AM 37.5014 -79.5422 233° Southwest 422 486 40,000  Level Washington Center
06:56AM 37.4331 -79.6483 231° Southwest 428 493 40,000  Level Washington Center
06:57AM 37.3625 -79.7622 232° Southwest 433 498 40,000  Level Washington Center
06:58AM 37.2917 -79.8758 232° Southwest 428 493 40,000  Level Washington Center
06:59AM 37.2139 -80.0019 232° Southwest 423 487 40,000  Level Washington Center
07:01AM 37.0631 -80.2414 232° Southwest 428 493 40,000  Level Atlanta Center
07:02AM 36.9892 -80.3514 230° Southwest 421 484 40,000  Level Atlanta Center
07:03AM 36.9092 -80.4589 227° Southwest 421 484 40,000  Level Atlanta Center
07:04AM 36.8308 -80.5636 227° Southwest 421 484 40,000  Level Atlanta Center
07:05AM 36.7583 -80.6575 226° Southwest 421 484 40,000  Level Atlanta Center
07:06AM 36.6839 -80.7617 228° Southwest 409 471 40,000  Level Atlanta Center
07:07AM 36.6053 -80.8656 227° Southwest 409 471 40,000  Level Atlanta Center
07:08AM 36.5286 -80.9669 227° Southwest 409 471 40,000  Level Atlanta Center
07:09AM 36.4500 -81.0731 227° Southwest 409 471 40,000  Level Atlanta Center
07:10AM 36.3731 -81.1739 227° Southwest 409 471 40,000  Level Atlanta Center
07:11AM 36.2961 -81.2747 227° Southwest 409 471 40,000  Level Atlanta Center
07:12AM 36.2172 -81.3778 227° Southwest 409 471 40,000 -60 Level Atlanta Center
07:13AM 36.1400 -81.4831 228° Southwest 409 471 39,900 -600 Descending Atlanta Center
07:14AM 36.0608 -81.5858 226° Southwest 409 471 38,900 -1,020 Descending Atlanta Center
07:15AM 35.9817 -81.6883 226° Southwest 419 482 37,900 -960 Descending Atlanta Center
07:16AM 35.8919 -81.8011 226° Southwest 419 482 37,000 -960 Descending Atlanta Center
07:17AM 35.8103 -81.9058 226° Southwest 419 482 36,000 -960 Descending Atlanta Center
07:18AM 35.7267 -82.0128 226° Southwest 429 494 35,100 -540 Descending Atlanta Center
07:19AM 35.6406 -82.1119 223° Southwest 434 499 35,000 -60 Descending Atlanta Center
07:20AM 35.5544 -82.2111 223° Southwest 429 494 35,000 -60 Level Atlanta Center
07:21AM 35.4661 -82.3100 222° Southwest 422 486 34,900 -840 Descending Atlanta Center
07:22AM 35.3778 -82.4111 223° Southwest 427 491 33,400 -1,260 Descending Atlanta Center
07:23AM 35.2894 -82.5119 223° Southwest 433 498 32,400 -900 Descending Atlanta Center
07:24AM 35.2069 -82.6050 223° Southwest 445 512 31,600 -900 Descending Atlanta Center
07:25AM 35.1122 -82.7108 222° Southwest 451 519 30,600 -1,080 Descending Atlanta Center
07:26AM 35.0092 -82.8242 222° Southwest 464 534 29,500 -1,080 Descending Atlanta Center
07:27AM 34.9142 -82.9267 222° Southwest 464 534 28,500 -1,080 Descending Atlanta Center
07:28AM 34.8189 -83.0317 222° Southwest 464 534 27,400 -960 Descending Atlanta Center
07:29AM 34.7383 -83.1211 222° Southwest 454 522 26,600 -960 Descending Atlanta Center
07:30AM 34.6492 -83.2181 222° Southwest 444 511 25,500 -1,080 Descending Atlanta Center
07:31AM 34.5622 -83.3175 223° Southwest 444 511 24,500 -1,320 Descending Atlanta Center
07:32AM 34.4772 -83.4139 223° Southwest 425 489 22,900 -2,100 Descending Atlanta Center
07:33AM 34.3922 -83.5050 222° Southwest 413 475 20,300 -2,580 Descending Atlanta Center
07:34AM 34.3131 -83.5961 224° Southwest 399 459 17,800 -2,520 Descending Atlanta Center
07:35AM 34.2319 -83.6869 223° Southwest 385 443 15,300 -2,520 Descending Atlanta Center
07:36AM 34.1550 -83.7678 221° Southwest 371 427 12,800 -1,680 Descending Atlanta Center
07:37AM 34.0906 -83.8406 223° Southwest 349 402 12,000 -480 Descending Atlanta Center
07:38AM 34.0667 -83.9000 244° Southwest 274 315 12,000  Level Atlanta TRACON
07:39AM 34.0333 -84.0000 248° West 285 328 12,000 -540 Level Atlanta TRACON
07:40AM 33.9833 -84.0833 234° Southwest 284 327 10,900 -1,380 Descending Atlanta TRACON
07:41AM 33.9167 -84.0833 180° South 299 344 9,400 -1,680 Descending Atlanta TRACON
07:42AM 33.8333 -84.0667 171° South 282 325 7,600 -1,440 Descending Atlanta TRACON
07:43AM 33.7547 -84.0614 177° South 276 318 6,400 -840 Descending Atlanta Center
07:44AM 33.6878 -84.0489 171° South 263 303 6,000 -540 Descending Atlanta Center
07:46AM 33.6500 -84.1333 242° Southwest 182 209 5,000 -600 Descending Atlanta TRACON
07:47AM 33.6500 -84.2000 270° West 184 212 4,400 -840 Descending Atlanta TRACON
07:48AM 33.6500 -84.2500 270° West 177 204 3,400 -900 Descending Atlanta TRACON
07:49AM 33.6500 -84.3000 270° West 133 153 2,700 -720 Descending Atlanta TRACON
07:50AM 33.6500 -84.3500 270° West 116 133 2,000 -660 Descending Atlanta TRACON
07:51AM 33.6500 -84.3833 270° West 119 137 1,400 -720 Descending Atlanta TRACON
07:53AM 33.6367 -84.4279 270° West  Level Estimated
08:00AM 33.6367 -84.4279 64° Northeast  Level Estimated
08:01AM 33.6367 -84.4279 64° Northeast  Level Estimated